Lamine, Missouri
Current Conditions -  °F | °C
As of 12:35 AM on Wednesday 28 Jan 2015 (Local Time) from KVER Reporting Station
Clear Clear  
Wind Chill: 28°   Ceiling: Unl
Heat Index: 36°   Visibility: 10mi
Dew Point: 31°   Wind: 10mph
Humidity: 82%   Direction: 110°ESE
Pressure: 30.14"   Gusts: NA
Location:  38.8814°N, 92.7602°W
Report Text: KVER 280635Z AUTO 11009KT 10SM CLR 02/M01 A3014 RMK AO2 T00211007
Loading
Personal Weather Stations






























Interactive Weather Map New forecast layout! Learn more

10-Day Weather Forecast

Advertisements
Track Severe Weather on mobile